Time;durP1;ratioP1;P1;durP2;ratioP2;P2;SDS_P1;SDS_P2;PMS_P1;PMS_P2;Temp;Humidity;BMP_temperature;BMP_pressure;BME280_temperature;BME280_humidity;BME280_pressure;Samples;Min_cycle;Max_cycle;Signal;HPM_P1;HPM_P2
2021/05/21 00:00:23;;;;;;;;;;;;;;;18.11;39.58;100927.69;5050094;27;97926;-79
2021/05/21 00:02:49;;;;;;;;;;;;;;;18.20;39.49;100923.53;5051508;27;98091;-78
2021/05/21 00:05:15;;;;;;;;;;;;;;;17.85;40.21;100917.78;5051987;28;96777;-78
2021/05/21 00:07:41;;;;;;;;;;;;;;;17.75;40.45;100922.81;5054012;27;97789;-79
2021/05/21 00:10:08;;;;;;;;;;;;;;;17.97;40.09;100917.00;5049501;28;97591;-77
2021/05/21 00:12:34;;;;;;;;;;;;;;;17.61;41.04;100914.81;5046554;27;96661;-77
2021/05/21 00:15:00;;;;;;;;;;;;;;;17.90;40.46;100913.84;5039197;28;97818;-78
2021/05/21 00:17:25;;;;;;;;;;;;;;;17.96;40.37;100909.94;5034855;28;98993;-78
2021/05/21 00:19:51;;;;;;;;;;;;;;;18.09;40.12;100915.34;5033411;27;96904;-79
2021/05/21 00:22:17;;;;;;;;;;;;;;;17.76;40.92;100904.97;5035253;27;96723;-77
2021/05/21 00:24:43;;;;;;;;;;;;;;;17.88;40.75;100899.72;5035741;27;96809;-78
2021/05/21 00:27:09;;;;;;;;;;;;;;;17.87;40.64;100900.66;5036713;27;99336;-77
2021/05/21 00:29:35;;;;;;;;;;;;;;;18.06;40.51;100897.69;5041778;27;98173;-79
2021/05/21 00:32:01;;;;;;;;;;;;;;;18.30;39.87;100885.41;5035043;27;96786;-78
2021/05/21 00:34:27;;;;;;;;;;;;;;;18.12;40.40;100885.72;5041129;27;96876;-79
2021/05/21 00:36:53;;;;;;;;;;;;;;;18.23;40.18;100880.56;5036910;28;98978;-78
2021/05/21 00:39:19;;;;;;;;;;;;;;;18.17;40.36;100873.81;5036635;27;97778;-78
2021/05/21 00:41:45;;;;;;;;;;;;;;;18.13;40.42;100869.59;5027322;27;98114;-78
2021/05/21 00:44:11;;;;;;;;;;;;;;;18.16;40.49;100871.22;5033907;27;96976;-77
2021/05/21 00:46:37;;;;;;;;;;;;;;;17.99;40.94;100871.44;5031197;27;99312;-77
2021/05/21 00:49:03;;;;;;;;;;;;;;;17.71;41.52;100864.31;5031628;27;97689;-78
2021/05/21 00:51:29;;;;;;;;;;;;;;;17.70;41.68;100863.47;5028357;27;96756;-78
2021/05/21 00:53:55;;;;;;;;;;;;;;;17.94;41.13;100861.03;5034451;27;96818;-78
2021/05/21 00:56:21;;;;;;;;;;;;;;;18.10;40.83;100850.22;5047669;27;99341;-77
2021/05/21 00:58:47;;;;;;;;;;;;;;;17.76;41.62;100843.50;5039725;28;97802;-78
2021/05/21 01:01:13;;;;;;;;;;;;;;;18.03;41.19;100841.75;5037265;27;96737;-78
2021/05/21 01:03:39;;;;;;;;;;;;;;;18.07;41.21;100837.91;5034639;27;98438;-79
2021/05/21 01:06:05;;;;;;;;;;;;;;;17.74;42.16;100835.59;5041815;27;98416;-78
2021/05/21 01:08:31;;;;;;;;;;;;;;;17.90;41.75;100833.66;5038602;27;98296;-79
2021/05/21 01:10:57;;;;;;;;;;;;;;;18.17;41.32;100827.47;5038805;28;97637;-79
2021/05/21 01:13:22;;;;;;;;;;;;;;;17.99;41.63;100817.94;5039050;27;97522;-78
2021/05/21 01:15:48;;;;;;;;;;;;;;;18.04;41.54;100810.50;5034450;27;98867;-78
2021/05/21 01:18:15;;;;;;;;;;;;;;;18.07;41.54;100812.97;5037498;28;99168;-78
2021/05/21 01:20:41;;;;;;;;;;;;;;;18.45;40.70;100807.75;5034056;28;97257;-77
2021/05/21 01:23:08;;;;;;;;;;;;;;;18.10;41.51;100804.75;5037889;28;97115;-78
2021/05/21 01:25:34;;;;;;;;;;;;;;;18.12;41.72;100793.00;5037973;27;97726;-78
2021/05/21 01:28:00;;;;;;;;;;;;;;;17.95;42.13;100805.75;5035265;27;99079;-78
2021/05/21 01:30:27;;;;;;;;;;;;;;;17.92;42.19;100788.09;5036191;28;96776;-78
2021/05/21 01:32:53;;;;;;;;;;;;;;;17.77;42.58;100781.09;5034406;27;96920;-78
2021/05/21 01:35:20;;;;;;;;;;;;;;;17.71;42.84;100781.47;5032968;27;98991;-77
2021/05/21 01:37:48;;;;;;;;;;;;;;;17.45;43.36;100786.66;5034216;28;99334;-78
2021/05/21 01:40:15;;;;;;;;;;;;;;;17.54;43.39;100786.03;5035571;27;96710;-78
2021/05/21 01:42:41;;;;;;;;;;;;;;;17.46;43.87;100779.47;5033644;27;97509;-78
2021/05/21 01:45:07;;;;;;;;;;;;;;;17.43;44.13;100771.66;5033612;27;98922;-78
2021/05/21 01:47:33;;;;;;;;;;;;;;;16.73;45.54;100778.72;5033158;27;99193;-78
2021/05/21 01:50:00;;;;;;;;;;;;;;;17.08;45.06;100771.19;5035576;27;96762;-78
2021/05/21 01:52:26;;;;;;;;;;;;;;;17.02;45.28;100772.44;5032002;27;97258;-78
2021/05/21 01:54:52;;;;;;;;;;;;;;;17.26;44.85;100763.88;5034362;27;97988;-78
2021/05/21 01:57:18;;;;;;;;;;;;;;;17.34;44.70;100766.88;5033694;27;98865;-78
2021/05/21 01:59:44;;;;;;;;;;;;;;;17.36;44.81;100756.97;5034425;28;96730;-78
2021/05/21 02:02:10;;;;;;;;;;;;;;;17.01;45.61;100762.69;5034385;27;96933;-80
2021/05/21 02:04:36;;;;;;;;;;;;;;;17.16;45.38;100757.38;5035858;27;98925;-79
2021/05/21 02:07:03;;;;;;;;;;;;;;;17.05;45.63;100739.38;5038242;27;98575;-78
2021/05/21 02:09:29;;;;;;;;;;;;;;;17.06;45.67;100744.63;5039110;27;96859;-78
2021/05/21 02:11:56;;;;;;;;;;;;;;;17.30;45.28;100728.00;5039515;27;97971;-80
2021/05/21 02:14:21;;;;;;;;;;;;;;;17.30;45.22;100734.19;5034491;27;99392;-77
2021/05/21 02:16:48;;;;;;;;;;;;;;;17.25;45.42;100722.94;5034800;27;98825;-77
2021/05/21 02:19:14;;;;;;;;;;;;;;;17.26;45.44;100724.66;5044147;27;98360;-79
2021/05/21 02:21:41;;;;;;;;;;;;;;;17.54;44.82;100716.59;5034073;27;98245;-79
2021/05/21 02:24:08;;;;;;;;;;;;;;;17.62;44.75;100728.63;5034645;27;99093;-79
2021/05/21 02:26:34;;;;;;;;;;;;;;;17.12;45.78;100714.84;5032172;27;98663;-78
2021/05/21 02:29:01;;;;;;;;;;;;;;;17.25;45.72;100703.41;5034593;27;96800;-78
2021/05/21 02:31:26;;;;;;;;;;;;;;;17.20;46.01;100700.16;5033027;27;97260;-78
2021/05/21 02:33:52;;;;;;;;;;;;;;;17.64;44.85;100690.16;5034141;27;98968;-79
2021/05/21 02:36:18;;;;;;;;;;;;;;;17.37;45.45;100694.59;5033662;27;99000;-78
2021/05/21 02:38:44;;;;;;;;;;;;;;;17.32;45.66;100694.03;5034919;27;97122;-79
2021/05/21 02:41:09;;;;;;;;;;;;;;;17.27;45.75;100688.97;5034927;27;97138;-78
2021/05/21 02:43:35;;;;;;;;;;;;;;;17.11;46.29;100685.59;5033097;28;99286;-79
2021/05/21 02:46:04;;;;;;;;;;;;;;;17.22;45.95;100676.88;5032554;28;97741;-79
2021/05/21 02:48:30;;;;;;;;;;;;;;;17.13;46.12;100681.84;5039851;27;96847;-79
2021/05/21 02:50:56;;;;;;;;;;;;;;;17.04;46.47;100687.78;5041315;27;97133;-79
2021/05/21 02:53:22;;;;;;;;;;;;;;;16.95;46.65;100683.00;5048033;27;97789;-78
2021/05/21 02:55:48;;;;;;;;;;;;;;;16.92;46.92;100675.22;5038159;27;97655;-78
2021/05/21 02:58:14;;;;;;;;;;;;;;;17.07;46.50;100671.56;5033769;27;96912;-78
2021/05/21 03:00:40;;;;;;;;;;;;;;;16.81;47.05;100675.00;5034023;27;97056;-78
2021/05/21 03:03:07;;;;;;;;;;;;;;;16.69;47.49;100667.75;5032427;27;97685;-78
2021/05/21 03:05:32;;;;;;;;;;;;;;;16.70;47.57;100672.16;5033293;27;98923;-78
2021/05/21 03:07:58;;;;;;;;;;;;;;;16.67;47.56;100667.03;5032776;27;96873;-78
2021/05/21 03:10:25;;;;;;;;;;;;;;;16.81;47.22;100656.31;5033144;27;96911;-78
2021/05/21 03:12:51;;;;;;;;;;;;;;;17.04;46.79;100654.88;5033435;27;98951;-79
2021/05/21 03:15:17;;;;;;;;;;;;;;;17.03;46.88;100654.03;5032037;27;98725;-78
2021/05/21 03:17:43;;;;;;;;;;;;;;;16.94;46.88;100646.59;5040546;27;96917;-78
2021/05/21 03:20:10;;;;;;;;;;;;;;;16.83;47.13;100654.44;5035350;27;97732;-78
2021/05/21 03:22:36;;;;;;;;;;;;;;;17.08;46.64;100643.91;5035884;27;98912;-77
2021/05/21 03:25:03;;;;;;;;;;;;;;;16.74;47.42;100649.66;5037506;27;97920;-78
2021/05/21 03:27:29;;;;;;;;;;;;;;;16.79;47.34;100647.56;5036778;27;96882;-79
2021/05/21 03:29:55;;;;;;;;;;;;;;;16.93;46.97;100638.72;5035983;27;97638;-79
2021/05/21 03:32:21;;;;;;;;;;;;;;;17.03;46.61;100642.50;5036605;27;98947;-79
2021/05/21 03:34:47;;;;;;;;;;;;;;;17.19;46.27;100642.38;5032540;27;98905;-79
2021/05/21 03:37:13;;;;;;;;;;;;;;;17.44;45.57;100637.16;5036421;27;96943;-79
2021/05/21 03:39:39;;;;;;;;;;;;;;;17.33;45.69;100636.97;5035103;27;96814;-79
2021/05/21 03:42:05;;;;;;;;;;;;;;;17.41;45.55;100629.31;5032736;27;99027;-79
2021/05/21 03:44:31;;;;;;;;;;;;;;;17.30;45.97;100630.03;5031992;27;98918;-78
2021/05/21 03:46:57;;;;;;;;;;;;;;;17.47;45.41;100628.91;5033425;28;97185;-79
2021/05/21 03:49:23;;;;;;;;;;;;;;;17.47;45.40;100626.25;5033882;27;96894;-79
2021/05/21 03:51:50;;;;;;;;;;;;;;;17.50;45.29;100626.91;5032298;28;99276;-79
2021/05/21 03:54:16;;;;;;;;;;;;;;;17.13;45.86;100631.13;5035171;27;98867;-78
2021/05/21 03:56:42;;;;;;;;;;;;;;;17.19;45.78;100627.22;5034566;27;97160;-77
2021/05/21 03:59:08;;;;;;;;;;;;;;;17.41;45.38;100618.63;5031239;28;97075;-78
2021/05/21 04:01:34;;;;;;;;;;;;;;;17.24;45.73;100621.56;5031260;27;97885;-78
2021/05/21 04:03:59;;;;;;;;;;;;;;;17.37;45.35;100623.34;5031784;27;98789;-78
2021/05/21 04:06:25;;;;;;;;;;;;;;;17.37;45.50;100622.47;5031545;27;97114;-77
2021/05/21 04:08:51;;;;;;;;;;;;;;;16.73;47.08;100615.94;5031959;27;96887;-78
2021/05/21 04:11:18;;;;;;;;;;;;;;;16.68;47.00;100618.88;5033138;27;99257;-78
2021/05/21 04:13:43;;;;;;;;;;;;;;;16.84;46.69;100610.78;5031787;28;98862;-78
2021/05/21 04:16:13;;;;;;;;;;;;;;;16.94;46.59;100608.38;5032085;27;96817;-79
2021/05/21 04:18:38;;;;;;;;;;;;;;;17.05;46.40;100616.56;5031472;27;96888;-78
2021/05/21 04:21:04;;;;;;;;;;;;;;;17.28;45.87;100607.06;5031548;28;100514;-78
2021/05/21 04:23:30;;;;;;;;;;;;;;;17.27;45.65;100595.50;5033160;27;98810;-78
2021/05/21 04:25:56;;;;;;;;;;;;;;;17.26;45.67;100598.31;5032995;28;96876;-78
2021/05/21 04:28:23;;;;;;;;;;;;;;;17.10;45.91;100596.63;5033667;27;96816;-77
2021/05/21 04:30:48;;;;;;;;;;;;;;;17.42;45.41;100593.66;5030189;28;99273;-78
2021/05/21 04:33:14;;;;;;;;;;;;;;;17.74;44.65;100587.03;5035416;28;99190;-78
2021/05/21 04:35:40;;;;;;;;;;;;;;;17.82;44.19;100589.19;5036146;27;96836;-78
2021/05/21 04:38:06;;;;;;;;;;;;;;;17.67;44.55;100583.06;5035916;27;96809;-78
2021/05/21 04:40:31;;;;;;;;;;;;;;;17.53;44.77;100583.97;5036496;27;98834;-79
2021/05/21 04:42:57;;;;;;;;;;;;;;;17.43;45.15;100579.34;5033412;28;98783;-79
2021/05/21 04:45:24;;;;;;;;;;;;;;;17.75;44.74;100574.53;5036331;27;97193;-78
2021/05/21 04:47:53;;;;;;;;;;;;;;;17.65;44.85;100568.97;5039000;27;97801;-77
2021/05/21 04:50:18;;;;;;;;;;;;;;;17.54;45.00;100560.78;5045927;28;96995;-78
2021/05/21 04:52:44;;;;;;;;;;;;;;;17.73;44.45;100557.75;5036786;27;98779;-77
2021/05/21 04:55:11;;;;;;;;;;;;;;;17.53;44.97;100559.06;5037845;27;96823;-78
2021/05/21 04:57:37;;;;;;;;;;;;;;;17.97;44.02;100558.75;5034398;27;97793;-76
2021/05/21 05:00:03;;;;;;;;;;;;;;;18.35;43.47;100548.06;5032319;28;98890;-77
2021/05/21 05:02:30;;;;;;;;;;;;;;;18.52;42.84;100544.16;5033360;27;98915;-77
2021/05/21 05:04:55;;;;;;;;;;;;;;;18.77;42.32;100537.94;5033481;28;97003;-77
2021/05/21 05:07:21;;;;;;;;;;;;;;;19.70;40.12;100540.72;5035202;27;96857;-78
2021/05/21 05:09:47;;;;;;;;;;;;;;;21.63;36.12;100526.94;5037691;28;97882;-78
2021/05/21 05:12:13;;;;;;;;;;;;;;;22.78;33.55;100532.09;5035693;27;98797;-77
2021/05/21 05:14:39;;;;;;;;;;;;;;;21.05;36.36;100524.56;5039253;28;96887;-78
2021/05/21 05:17:04;;;;;;;;;;;;;;;20.76;37.32;100520.72;5040289;27;97384;-78
2021/05/21 05:19:31;;;;;;;;;;;;;;;20.26;37.91;100509.50;5039925;27;101095;-77
2021/05/21 05:21:57;;;;;;;;;;;;;;;19.84;39.16;100510.19;5036589;27;98998;-77
2021/05/21 05:24:23;;;;;;;;;;;;;;;19.90;39.42;100507.03;5037191;27;96642;-79
2021/05/21 05:26:49;;;;;;;;;;;;;;;19.66;39.58;100511.59;5034193;27;97027;-78
2021/05/21 05:29:15;;;;;;;;;;;;;;;19.38;40.26;100502.97;5034250;28;98943;-77
2021/05/21 05:31:42;;;;;;;;;;;;;;;19.73;39.92;100504.81;5034748;27;98875;-78
2021/05/21 05:34:08;;;;;;;;;;;;;;;19.70;39.44;100491.63;5034281;27;97118;-78
2021/05/21 05:36:35;;;;;;;;;;;;;;;19.54;39.90;100481.25;5028623;27;97341;-77
2021/05/21 05:39:01;;;;;;;;;;;;;;;19.64;39.46;100489.41;5033625;27;99378;-76
2021/05/21 05:41:26;;;;;;;;;;;;;;;19.68;39.84;100477.50;5031080;27;98954;-79
2021/05/21 05:43:52;;;;;;;;;;;;;;;19.99;38.85;100486.69;5032070;27;97735;-77
2021/05/21 05:46:18;;;;;;;;;;;;;;;19.86;39.10;100481.44;5042703;27;96921;-77
2021/05/21 05:48:46;;;;;;;;;;;;;;;20.15;38.95;100474.59;5037505;28;96824;-78
2021/05/21 05:51:12;;;;;;;;;;;;;;;19.99;38.69;100462.56;5030441;27;99323;-78
2021/05/21 05:53:40;;;;;;;;;;;;;;;20.67;37.62;100468.63;5032406;27;97472;-80
2021/05/21 05:56:06;;;;;;;;;;;;;;;20.37;37.99;100464.88;5037266;28;96816;-78
2021/05/21 05:58:32;;;;;;;;;;;;;;;20.16;38.11;100468.28;5029092;27;99594;-80
2021/05/21 06:00:58;;;;;;;;;;;;;;;20.23;38.17;100450.72;5033829;27;98753;-78
2021/05/21 06:03:24;;;;;;;;;;;;;;;20.79;37.95;100461.41;5039959;27;96941;-78
2021/05/21 06:05:50;;;;;;;;;;;;;;;20.64;37.40;100459.97;5039677;27;96816;-77
2021/05/21 06:08:16;;;;;;;;;;;;;;;21.32;36.32;100456.09;5044259;27;98679;-79
2021/05/21 06:10:43;;;;;;;;;;;;;;;21.25;36.35;100453.09;5038103;27;99453;-79
2021/05/21 06:13:09;;;;;;;;;;;;;;;21.05;36.46;100441.28;5037852;27;97306;-79
2021/05/21 06:15:36;;;;;;;;;;;;;;;21.07;36.17;100438.44;5037531;27;97161;-78
2021/05/21 06:18:02;;;;;;;;;;;;;;;20.80;36.40;100425.53;5028561;27;99127;-78
2021/05/21 06:20:29;;;;;;;;;;;;;;;21.40;35.11;100429.41;5032260;27;99857;-77
2021/05/21 06:22:55;;;;;;;;;;;;;;;21.55;35.46;100427.25;5033311;27;97151;-77
2021/05/21 06:25:24;;;;;;;;;;;;;;;21.87;34.51;100423.47;5032623;27;99172;-78
2021/05/21 06:27:50;;;;;;;;;;;;;;;22.38;33.76;100417.19;5030884;28;99317;-78
2021/05/21 06:30:17;;;;;;;;;;;;;;;21.66;34.58;100409.19;5032480;28;102737;-78
2021/05/21 06:32:44;;;;;;;;;;;;;;;21.48;34.91;100408.09;5032935;27;97518;-77
2021/05/21 06:35:10;;;;;;;;;;;;;;;22.30;33.80;100408.94;5035592;28;96928;-80
2021/05/21 06:37:37;;;;;;;;;;;;;;;21.41;34.80;100398.84;5035517;27;98938;-79
2021/05/21 06:40:04;;;;;;;;;;;;;;;21.71;34.22;100390.84;5038886;27;98795;-78
2021/05/21 06:42:30;;;;;;;;;;;;;;;22.68;32.99;100394.69;5038442;27;96811;-78
2021/05/21 06:44:56;;;;;;;;;;;;;;;23.15;32.74;100397.56;5045645;27;97664;-78
2021/05/21 06:47:25;;;;;;;;;;;;;;;22.92;31.71;100389.78;5046145;27;99225;-78
2021/05/21 06:49:51;;;;;;;;;;;;;;;22.88;31.51;100382.97;5040166;27;98110;-79
2021/05/21 06:52:17;;;;;;;;;;;;;;;23.00;31.46;100381.84;5043482;27;96863;-77
2021/05/21 06:54:44;;;;;;;;;;;;;;;23.90;30.27;100370.56;5052024;27;96793;-78
2021/05/21 06:57:10;;;;;;;;;;;;;;;24.03;30.66;100365.69;5048746;27;97844;-76
2021/05/21 06:59:36;;;;;;;;;;;;;;;23.52;30.60;100362.63;5048885;27;98033;-76
2021/05/21 07:02:03;;;;;;;;;;;;;;;22.45;32.08;100364.47;5048385;27;97914;-76
2021/05/21 07:04:29;;;;;;;;;;;;;;;22.20;32.57;100370.38;5045453;27;96726;-78
2021/05/21 07:06:56;;;;;;;;;;;;;;;22.03;32.62;100360.28;5048414;28;97998;-79
2021/05/21 07:09:22;;;;;;;;;;;;;;;22.95;31.64;100353.63;5043430;28;98820;-79
2021/05/21 07:11:48;;;;;;;;;;;;;;;22.91;31.97;100353.03;5042755;27;96768;-77
2021/05/21 07:14:14;;;;;;;;;;;;;;;22.67;32.35;100352.59;5038436;27;96742;-79
2021/05/21 07:16:41;;;;;;;;;;;;;;;22.23;32.85;100345.91;5034843;27;98925;-79
2021/05/21 07:19:10;;;;;;;;;;;;;;;22.17;33.09;100333.00;5032839;27;99277;-78
2021/05/21 07:21:35;;;;;;;;;;;;;;;21.90;33.61;100340.81;5032796;27;98580;-79
2021/05/21 07:24:04;;;;;;;;;;;;;;;21.34;34.33;100330.50;5026108;28;97375;-78
2021/05/21 07:26:31;;;;;;;;;;;;;;;21.37;34.38;100327.56;5018574;28;99126;-79
2021/05/21 07:28:57;;;;;;;;;;;;;;;21.35;34.27;100327.69;5033412;27;97754;-78
2021/05/21 07:31:26;;;;;;;;;;;;;;;21.54;34.48;100315.31;5030146;27;97243;-77
2021/05/21 07:33:52;;;;;;;;;;;;;;;21.46;34.26;100308.78;5032505;27;97371;-79
2021/05/21 07:36:19;;;;;;;;;;;;;;;21.41;33.96;100313.72;5025874;28;98936;-78
2021/05/21 07:38:46;;;;;;;;;;;;;;;21.68;33.75;100298.81;5032254;28;98250;-79
2021/05/21 07:41:12;;;;;;;;;;;;;;;21.90;33.21;100295.09;5032894;27;96987;-78
2021/05/21 07:43:38;;;;;;;;;;;;;;;22.53;32.53;100297.31;5034699;27;97364;-79
2021/05/21 07:46:04;;;;;;;;;;;;;;;23.04;31.73;100274.59;5035714;27;99293;-78
2021/05/21 07:48:30;;;;;;;;;;;;;;;23.33;31.09;100282.63;5034212;27;99573;-79
2021/05/21 07:50:55;;;;;;;;;;;;;;;21.96;32.55;100281.13;5038056;27;96599;-78
2021/05/21 07:53:22;;;;;;;;;;;;;;;22.63;31.32;100287.41;5040235;27;97116;-79
2021/05/21 07:55:48;;;;;;;;;;;;;;;22.49;31.66;100270.84;5032763;27;98941;-78
2021/05/21 07:58:14;;;;;;;;;;;;;;;22.34;31.92;100261.47;5026341;28;98807;-78
2021/05/21 08:00:41;;;;;;;;;;;;;;;21.86;32.56;100254.16;5025758;28;97577;-78
2021/05/21 08:03:07;;;;;;;;;;;;;;;22.42;31.97;100250.84;5017066;28;97194;-78
2021/05/21 08:05:32;;;;;;;;;;;;;;;23.02;30.79;100242.44;5030127;27;98909;-78
2021/05/21 08:07:58;;;;;;;;;;;;;;;23.25;30.19;100234.84;5033077;27;99102;-77
2021/05/21 08:10:25;;;;;;;;;;;;;;;23.68;29.45;100238.81;5032168;27;96819;-79
2021/05/21 08:12:51;;;;;;;;;;;;;;;22.71;30.49;100234.69;5025936;27;97229;-78
2021/05/21 08:15:17;;;;;;;;;;;;;;;21.84;31.96;100235.47;5023657;27;98989;-78
2021/05/21 08:17:43;;;;;;;;;;;;;;;23.14;30.89;100213.47;5031876;27;98893;-78
2021/05/21 08:20:09;;;;;;;;;;;;;;;23.40;30.41;100219.88;5022759;28;96940;-77
2021/05/21 08:22:35;;;;;;;;;;;;;;;23.32;29.99;100203.59;5028847;27;96891;-79
2021/05/21 08:25:01;;;;;;;;;;;;;;;22.82;30.54;100210.31;5030188;27;98910;-78
2021/05/21 08:27:27;;;;;;;;;;;;;;;23.28;30.16;100213.00;5030356;27;99020;-77
2021/05/21 08:29:55;;;;;;;;;;;;;;;23.79;29.25;100200.81;5034825;27;97847;-80
2021/05/21 08:32:23;;;;;;;;;;;;;;;23.46;29.67;100196.84;5038499;27;96737;-79
2021/05/21 08:34:49;;;;;;;;;;;;;;;24.01;28.98;100192.28;5032345;28;98158;-77
2021/05/21 08:37:15;;;;;;;;;;;;;;;24.29;28.73;100178.72;5034798;28;98184;-78
2021/05/21 08:39:40;;;;;;;;;;;;;;;24.39;28.70;100174.09;5045525;27;96944;-77
2021/05/21 08:42:07;;;;;;;;;;;;;;;24.14;29.35;100184.66;5035442;27;96907;-78
2021/05/21 08:44:35;;;;;;;;;;;;;;;23.58;29.75;100182.19;5026958;27;98181;-78
2021/05/21 08:47:01;;;;;;;;;;;;;;;22.57;30.70;100180.28;5022654;28;98824;-77
2021/05/21 08:49:27;;;;;;;;;;;;;;;22.87;30.69;100173.84;5025219;27;97425;-78
2021/05/21 08:51:55;;;;;;;;;;;;;;;22.69;31.06;100180.09;5027088;28;97457;-78
2021/05/21 08:54:20;;;;;;;;;;;;;;;23.47;29.89;100173.44;5026964;28;99565;-79
2021/05/21 08:56:46;;;;;;;;;;;;;;;23.78;29.59;100162.19;5029523;27;98219;-79
2021/05/21 08:59:12;;;;;;;;;;;;;;;23.68;29.40;100155.19;5026130;27;97318;-78
2021/05/21 09:01:51;;;;;;;;;;;;;;;23.81;29.18;100174.53;5031904;27;97217;-79
2021/05/21 09:04:20;;;;;;;;;;;;;;;23.58;29.42;100149.84;5032313;28;99043;-80
2021/05/21 09:06:46;;;;;;;;;;;;;;;23.52;29.57;100136.13;5031331;27;99048;-78
2021/05/21 09:09:11;;;;;;;;;;;;;;;23.50;29.60;100143.53;5036393;27;97200;-79
2021/05/21 09:11:40;;;;;;;;;;;;;;;23.53;29.84;100129.72;5035458;28;99169;-79
2021/05/21 09:14:06;;;;;;;;;;;;;;;23.80;29.44;100124.28;5038482;28;101456;-77
2021/05/21 09:16:33;;;;;;;;;;;;;;;24.41;28.90;100120.78;5040941;27;99109;-79
2021/05/21 09:19:00;;;;;;;;;;;;;;;23.54;30.13;100131.44;5033114;27;96945;-78
2021/05/21 09:21:26;;;;;;;;;;;;;;;23.85;29.71;100121.97;5034541;27;97191;-79
2021/05/21 09:24:01;;;;;;;;;;;;;;;23.28;30.47;100118.66;5035220;27;99778;-77
2021/05/21 09:26:40;;;;;;;;;;;;;;;24.34;28.50;100111.63;5034964;28;98624;-78
2021/05/21 09:29:06;;;;;;;;;;;;;;;24.05;28.55;100130.75;5035426;28;97312;-78
2021/05/21 09:31:40;;;;;;;;;;;;;;;24.15;27.20;100129.69;5029150;27;97532;-77
2021/05/21 09:34:07;;;;;;;;;;;;;;;24.80;25.79;100127.44;5030779;27;98996;-78
2021/05/21 09:36:35;;;;;;;;;;;;;;;24.56;26.33;100136.22;5028844;27;98983;-78
2021/05/21 09:39:01;;;;;;;;;;;;;;;24.18;27.03;100136.59;5033120;27;97793;-78
2021/05/21 09:41:27;;;;;;;;;;;;;;;23.99;27.09;100126.81;5027463;27;98606;-77
2021/05/21 09:43:54;;;;;;;;;;;;;;;24.54;27.36;100121.22;5028072;28;99018;-76
2021/05/21 09:46:20;;;;;;;;;;;;;;;24.16;27.80;100114.28;5025619;28;99297;-77
2021/05/21 09:48:47;;;;;;;;;;;;;;;24.15;27.99;100116.19;5029446;27;96857;-78
2021/05/21 09:51:13;;;;;;;;;;;;;;;24.29;27.87;100109.38;5031357;27;97492;-78
2021/05/21 09:53:46;;;;;;;;;;;;;;;23.78;28.31;100108.25;5031959;27;98938;-77
2021/05/21 09:56:17;;;;;;;;;;;;;;;24.14;27.58;100105.53;5029140;28;98949;-76
2021/05/21 09:58:43;;;;;;;;;;;;;;;24.61;26.69;100100.66;5026464;27;97393;-77
2021/05/21 10:01:10;;;;;;;;;;;;;;;24.66;26.42;100105.59;5034430;27;97133;-76
2021/05/21 10:03:37;;;;;;;;;;;;;;;24.47;25.55;100103.94;5027545;28;101582;-77
2021/05/21 10:06:03;;;;;;;;;;;;;;;24.11;25.75;100113.94;5029773;27;100020;-78
2021/05/21 10:08:30;;;;;;;;;;;;;;;23.63;25.93;100098.97;5027157;28;97073;-78
2021/05/21 10:10:56;;;;;;;;;;;;;;;24.30;25.11;100096.72;5030471;28;97698;-77
2021/05/21 10:13:22;;;;;;;;;;;;;;;24.42;25.26;100088.19;5031009;27;99161;-77
2021/05/21 10:15:49;;;;;;;;;;;;;;;24.44;24.71;100085.34;5026756;28;100026;-78
2021/05/21 10:18:15;;;;;;;;;;;;;;;24.05;25.20;100090.25;5025085;28;97178;-77
2021/05/21 10:20:43;;;;;;;;;;;;;;;23.66;26.14;100087.91;5030717;27;97282;-77
2021/05/21 10:23:09;;;;;;;;;;;;;;;23.66;25.81;100092.44;5024019;28;101025;-79
2021/05/21 10:25:37;;;;;;;;;;;;;;;23.49;26.40;100101.38;5031617;28;98783;-78
2021/05/21 10:28:05;;;;;;;;;;;;;;;23.41;26.25;100089.47;5031296;27;96747;-77
2021/05/21 10:30:34;;;;;;;;;;;;;;;22.80;26.55;100091.94;5032566;28;97822;-78
2021/05/21 10:33:15;;;;;;;;;;;;;;;23.21;25.58;100085.22;5030161;28;100579;-79
2021/05/21 10:35:41;;;;;;;;;;;;;;;23.33;25.60;100088.53;5029608;28;100624;-77
2021/05/21 10:38:22;;;;;;;;;;;;;;;22.65;26.16;100075.38;5026940;27;97464;-77
2021/05/21 10:41:07;;;;;;;;;;;;;;;22.74;26.00;100079.06;5028006;28;96966;-78
2021/05/21 10:43:33;;;;;;;;;;;;;;;22.92;26.31;100073.72;5028999;27;99536;-78
2021/05/21 10:46:25;;;;;;;;;;;;;;;22.30;26.45;100067.13;5031934;28;99609;-78
2021/05/21 10:48:52;;;;;;;;;;;;;;;22.94;26.06;100067.19;5041814;28;96847;-79
2021/05/21 10:51:18;;;;;;;;;;;;;;;23.83;26.03;100056.50;5050997;28;96810;-78
2021/05/21 10:53:46;;;;;;;;;;;;;;;23.83;26.21;100064.59;5029492;28;98498;-78
2021/05/21 10:56:15;;;;;;;;;;;;;;;24.22;25.19;100054.31;5028582;27;101299;-78
2021/05/21 10:58:45;;;;;;;;;;;;;;;23.99;25.46;100050.41;5022571;28;97283;-78
2021/05/21 11:01:18;;;;;;;;;;;;;;;24.54;25.26;100048.28;5029473;28;97042;-78
2021/05/21 11:04:05;;;;;;;;;;;;;;;23.84;25.33;100044.72;5025425;28;101843;-78
2021/05/21 11:06:32;;;;;;;;;;;;;;;23.64;26.00;100044.03;5028580;28;101030;-78
2021/05/21 11:08:59;;;;;;;;;;;;;;;23.91;26.10;100047.66;5026201;28;97241;-78
2021/05/21 11:11:39;;;;;;;;;;;;;;;24.02;25.53;100034.78;5025969;27;97022;-78
2021/05/21 11:14:06;;;;;;;;;;;;;;;24.18;25.07;100032.16;5029051;27;99089;-78
2021/05/21 11:16:35;;;;;;;;;;;;;;;24.32;25.49;100049.66;5027760;28;99125;-78
2021/05/21 11:19:18;;;;;;;;;;;;;;;23.98;25.47;100046.88;5026725;27;98250;-78
2021/05/21 11:21:45;;;;;;;;;;;;;;;23.42;26.06;100031.88;5031985;28;97692;-77
2021/05/21 11:24:11;;;;;;;;;;;;;;;;;;5024932;27;98927;-77
2021/05/21 11:26:41;;;;;;;;;;;;;;;23.78;25.97;100035.41;5027551;27;98829;-77
2021/05/21 11:29:08;;;;;;;;;;;;;;;24.02;25.99;100036.63;5028263;28;97040;-78
2021/05/21 11:31:36;;;;;;;;;;;;;;;24.32;26.01;100032.63;5026213;28;97297;-78
2021/05/21 11:34:03;;;;;;;;;;;;;;;24.68;24.58;100014.44;5024095;27;97850;-78
2021/05/21 11:36:31;;;;;;;;;;;;;;;24.95;24.87;100028.56;5031085;28;97825;-78
2021/05/21 11:38:56;;;;;;;;;;;;;;;25.12;24.66;100031.34;5029115;27;98640;-78
2021/05/21 11:41:28;;;;;;;;;;;;;;;24.70;24.42;100029.44;5029991;28;97124;-78
2021/05/21 11:43:53;;;;;;;;;;;;;;;24.42;25.03;100041.44;5027611;28;99315;-78
2021/05/21 11:46:21;;;;;;;;;;;;;;;24.52;24.44;100016.03;5032914;27;99135;-77
2021/05/21 11:48:47;;;;;;;;;;;;;;;24.57;24.67;100023.66;5035514;27;97365;-78
2021/05/21 11:51:15;;;;;;;;;;;;;;;24.38;24.52;100013.09;5036058;27;97794;-77
2021/05/21 11:53:48;;;;;;;;;;;;;;;24.34;24.49;100023.38;5031988;27;98907;-78
2021/05/21 11:56:14;;;;;;;;;;;;;;;24.32;24.50;100019.13;5033358;28;98864;-78
2021/05/21 11:58:40;;;;;;;;;;;;;;;24.41;24.56;100019.03;5027232;28;98044;-78
2021/05/21 12:01:06;;;;;;;;;;;;;;;24.85;24.28;100010.78;5032600;28;98461;-78
2021/05/21 12:03:37;;;;;;;;;;;;;;;24.48;25.23;100021.94;5029854;28;98970;-78
2021/05/21 12:06:03;;;;;;;;;;;;;;;23.80;25.78;100003.75;5027917;28;99265;-78
2021/05/21 12:08:29;;;;;;;;;;;;;;;24.83;25.14;100000.13;5027830;27;98583;-79
2021/05/21 12:10:55;;;;;;;;;;;;;;;24.41;25.61;100008.22;5029586;28;96918;-77
2021/05/21 12:13:21;;;;;;;;;;;;;;;24.31;26.20;99976.94;5027723;27;99665;-76
2021/05/21 12:15:47;;;;;;;;;;;;;;;24.72;25.55;99997.72;5022525;28;98674;-77
2021/05/21 12:18:12;;;;;;;;;;;;;;;25.06;25.10;99994.16;5030579;27;97511;-78
2021/05/21 12:20:39;;;;;;;;;;;;;;;24.41;25.10;99991.19;5023782;27;98823;-78
2021/05/21 12:23:05;;;;;;;;;;;;;;;25.41;23.95;99992.00;5031087;27;99043;-77
2021/05/21 12:25:32;;;;;;;;;;;;;;;24.96;23.54;99976.22;5027962;27;98878;-78
2021/05/21 12:27:58;;;;;;;;;;;;;;;24.40;23.78;99979.53;5027246;27;97163;-78
2021/05/21 12:30:25;;;;;;;;;;;;;;;24.80;23.59;99978.00;5029031;28;96874;-77
2021/05/21 12:32:51;;;;;;;;;;;;;;;24.39;23.89;99967.03;5026657;28;98998;-77
2021/05/21 12:35:18;;;;;;;;;;;;;;;24.27;24.06;99970.19;5025078;27;99232;-78